Time;durP1;ratioP1;P1;durP2;ratioP2;P2;SDS_P1;SDS_P2;PMS_P1;PMS_P2;Temp;Humidity;BMP_temperature;BMP_pressure;BME280_temperature;BME280_humidity;BME280_pressure;Samples;Min_cycle;Max_cycle;Signal;HPM_P1;HPM_P2
2024/01/12 00:00:44;;;;;;;36.07;27.83;;;;;20.50;102182.00;;;;2080795;28;20213;-51
2024/01/12 00:01:45;;;;;;;38.23;28.27;;;;;20.40;102186.00;;;;2086026;28;20208;-52
2024/01/12 00:02:45;;;;;;;39.13;28.70;;;;;20.40;102185.00;;;;2073953;28;20220;-51
2024/01/12 00:03:46;;;;;;;38.40;28.87;;;;;20.50;102190.00;;;;2086847;28;20220;-50
2024/01/12 00:04:46;;;;;;;37.80;26.90;;;;;20.40;102190.00;;;;2089485;28;20216;-50
2024/01/12 00:05:46;;;;;;;40.10;29.40;;;;;20.40;102185.00;;;;2085275;28;20201;-50
2024/01/12 00:06:48;;;;;;;34.90;28.10;;;;;20.40;102183.00;;;;2085991;28;20305;-50
2024/01/12 00:07:48;;;;;;;34.90;26.90;;;;;20.40;102185.00;;;;2074438;28;21172;-51
2024/01/12 00:08:49;;;;;;;36.70;27.83;;;;;20.40;102185.00;;;;2083142;28;20213;-51
2024/01/12 00:09:49;;;;;;;35.90;26.47;;;;;20.40;102185.00;;;;2081616;28;20201;-50
2024/01/12 00:10:49;;;;;;;38.57;28.70;;;;;20.40;102188.00;;;;2086930;28;20297;-52
2024/01/12 00:11:50;;;;;;;36.10;26.50;;;;;20.40;102181.00;;;;2084569;28;20220;-50
2024/01/12 00:12:50;;;;;;;34.40;26.70;;;;;20.40;102190.00;;;;2072888;28;20221;-51
2024/01/12 00:13:50;;;;;;;37.70;27.17;;;;;20.40;102184.00;;;;2087638;28;20222;-52
2024/01/12 00:14:51;;;;;;;37.53;26.57;;;;;20.40;102193.00;;;;2087613;28;20212;-51
2024/01/12 00:15:51;;;;;;;32.10;25.70;;;;;20.40;102185.00;;;;2085712;28;20283;-51
2024/01/12 00:16:51;;;;;;;35.63;26.93;;;;;20.40;102189.00;;;;2085330;28;20224;-53
2024/01/12 00:17:52;;;;;;;36.30;27.30;;;;;19.90;102183.00;;;;2075756;28;20221;-51
2024/01/12 00:18:52;;;;;;;34.90;26.73;;;;;20.40;102192.00;;;;2085808;28;20312;-51
2024/01/12 00:19:52;;;;;;;39.07;26.47;;;;;20.30;102187.00;;;;2084040;28;20217;-51
2024/01/12 00:20:53;;;;;;;37.63;26.40;;;;;20.30;102186.00;;;;2084765;28;20232;-51
2024/01/12 00:21:54;;;;;;;33.70;25.57;;;;;20.30;102184.00;;;;2084715;28;20351;-52
2024/01/12 00:22:56;;;;;;;34.53;25.95;;;;;20.30;102189.00;;;;2074727;28;20217;-51
2024/01/12 00:23:56;;;;;;;35.58;26.10;;;;;20.30;102187.00;;;;2084890;28;20785;-50
2024/01/12 00:24:56;;;;;;;31.83;24.70;;;;;20.30;102187.00;;;;2084772;28;20220;-51
2024/01/12 00:25:59;;;;;;;32.97;23.10;;;;;20.30;102182.00;;;;2085495;28;20213;-51
2024/01/12 00:26:59;;;;;;;31.05;24.75;;;;;20.30;102194.00;;;;2089658;28;20269;-51
2024/01/12 00:27:59;;;;;;;34.37;24.83;;;;;20.30;102194.00;;;;2078921;28;21076;-51
2024/01/12 00:29:00;;;;;;;36.37;25.17;;;;;20.30;102194.00;;;;2084944;28;20956;-51
2024/01/12 00:30:00;;;;;;;33.83;24.73;;;;;20.30;102198.00;;;;2085376;28;20636;-51
2024/01/12 00:31:00;;;;;;;30.97;23.23;;;;;20.30;102250.00;;;;2085783;28;20660;-51
2024/01/12 00:32:01;;;;;;;31.17;24.47;;;;;20.30;102190.00;;;;2084676;28;20610;-50
2024/01/12 00:33:01;;;;;;;29.73;24.53;;;;;20.30;102196.00;;;;2075625;28;20673;-51
2024/01/12 00:34:02;;;;;;;32.43;23.87;;;;;20.30;102196.00;;;;2084743;28;20212;-51
2024/01/12 00:35:02;;;;;;;30.87;23.77;;;;;20.30;102195.00;;;;2085523;28;20762;-51
2024/01/12 00:36:03;;;;;;;30.90;23.70;;;;;20.30;102196.00;;;;2084474;28;20312;-50
2024/01/12 00:37:03;;;;;;;30.20;23.33;;;;;20.30;102188.00;;;;2086002;28;20465;-51
2024/01/12 00:38:04;;;;;;;33.07;24.07;;;;;20.30;102194.00;;;;2074899;28;20311;-54
2024/01/12 00:39:04;;;;;;;32.50;23.33;;;;;20.30;102200.00;;;;2084796;28;20710;-53
2024/01/12 00:40:06;;;;;;;30.73;23.23;;;;;20.20;102207.00;;;;2083671;28;20306;-52
2024/01/12 00:41:06;;;;;;;30.02;23.50;;;;;20.20;102201.00;;;;2084624;28;20216;-50
2024/01/12 00:42:07;;;;;;;31.73;22.87;;;;;20.20;102195.00;;;;2084900;28;20212;-51
2024/01/12 00:43:10;;;;;;;32.87;23.43;;;;;19.40;102192.00;;;;2074980;28;20213;-50
2024/01/12 00:44:10;;;;;;;32.63;24.02;;;;;20.20;102201.00;;;;2083569;28;20304;-50
2024/01/12 00:45:10;;;;;;;29.90;22.17;;;;;20.20;102190.00;;;;2085645;28;20701;-50
2024/01/12 00:46:11;;;;;;;30.67;21.93;;;;;20.20;102190.00;;;;2083393;28;20243;-51
2024/01/12 00:47:11;;;;;;;30.10;23.17;;;;;20.20;102187.00;;;;2085235;28;20707;-51
2024/01/12 00:48:11;;;;;;;29.23;22.27;;;;;20.20;102176.00;;;;2075275;28;21207;-50
2024/01/12 00:49:12;;;;;;;27.30;21.43;;;;;20.20;102179.00;;;;2084670;28;20645;-50
2024/01/12 00:50:12;;;;;;;31.03;22.07;;;;;20.20;102182.00;;;;2084969;28;20673;-51
2024/01/12 00:51:13;;;;;;;34.67;24.23;;;;;20.20;102174.00;;;;2084545;28;20278;-51
2024/01/12 00:52:13;;;;;;;29.73;22.70;;;;;20.20;102181.00;;;;2071169;28;20213;-51
2024/01/12 00:53:14;;;;;;;29.00;22.00;;;;;20.20;102226.00;;;;2081789;28;20728;-51
2024/01/12 00:54:14;;;;;;;30.77;23.30;;;;;20.20;102180.00;;;;2084997;28;20598;-50
2024/01/12 00:55:15;;;;;;;31.50;21.30;;;;;20.10;102163.00;;;;2083814;28;20213;-51
2024/01/12 00:56:15;;;;;;;28.00;21.23;;;;;20.10;102165.00;;;;2085577;28;20290;-51
2024/01/12 00:57:16;;;;;;;27.80;21.97;;;;;20.10;102172.00;;;;2075312;28;20317;-50
2024/01/12 00:58:16;;;;;;;31.30;23.17;;;;;20.10;102170.00;;;;2085139;28;20220;-51
2024/01/12 00:59:16;;;;;;;28.03;21.17;;;;;20.10;102169.00;;;;2084559;28;20209;-50
2024/01/12 01:00:17;;;;;;;29.30;21.40;;;;;20.10;102183.00;;;;2083157;28;20259;-51
2024/01/12 01:01:17;;;;;;;27.63;21.03;;;;;20.10;102173.00;;;;2083386;28;20274;-51
2024/01/12 01:02:17;;;;;;;26.40;20.27;;;;;20.10;102175.00;;;;2073318;28;20213;-51
2024/01/12 01:03:18;;;;;;;25.73;20.90;;;;;20.10;102184.00;;;;2083474;28;20212;-51
2024/01/12 01:04:18;;;;;;;27.63;20.10;;;;;20.10;102184.00;;;;2085300;28;20300;-50
2024/01/12 01:05:18;;;;;;;26.90;20.43;;;;;20.20;102176.00;;;;2084326;28;20225;-51
2024/01/12 01:06:19;;;;;;;28.17;20.63;;;;;20.10;102173.00;;;;2085127;28;20288;-50
2024/01/12 01:07:19;;;;;;;26.50;20.70;;;;;20.10;102184.00;;;;2074015;28;20220;-51
2024/01/12 01:08:19;;;;;;;26.20;19.30;;;;;20.10;102186.00;;;;2085538;28;20739;-50
2024/01/12 01:09:20;;;;;;;25.03;19.40;;;;;20.10;102195.00;;;;2085045;28;20220;-51
2024/01/12 01:10:20;;;;;;;28.90;21.17;;;;;20.10;102191.00;;;;2084361;28;20315;-51
2024/01/12 01:11:20;;;;;;;26.40;19.73;;;;;20.10;102193.00;;;;2085278;28;20232;-51
2024/01/12 01:12:21;;;;;;;28.00;20.80;;;;;20.10;102232.00;;;;2073868;28;20223;-51
2024/01/12 01:13:21;;;;;;;29.33;19.87;;;;;20.10;102191.00;;;;2093081;28;20211;-51
2024/01/12 01:14:24;;;;;;;26.80;20.30;;;;;20.10;102193.00;;;;2095376;28;20273;-51
2024/01/12 01:15:25;;;;;;;23.30;18.83;;;;;20.10;102185.00;;;;2077548;28;20283;-51
2024/01/12 01:16:25;;;;;;;26.20;19.90;;;;;20.10;102191.00;;;;2084975;28;20295;-50
2024/01/12 01:17:25;;;;;;;25.80;19.83;;;;;20.10;102185.00;;;;2074808;28;21084;-51
2024/01/12 01:18:26;;;;;;;28.43;20.50;;;;;20.10;102186.00;;;;2085385;28;20327;-50
2024/01/12 01:19:26;;;;;;;26.47;19.20;;;;;20.00;102187.00;;;;2084646;28;20209;-50
2024/01/12 01:20:26;;;;;;;29.70;20.70;;;;;20.00;102187.00;;;;2085279;28;20213;-51
2024/01/12 01:21:27;;;;;;;28.52;20.38;;;;;20.10;102191.00;;;;2080656;28;20217;-50
2024/01/12 01:22:31;;;;;;;23.27;17.50;;;;;20.10;102186.00;;;;2071974;28;20240;-51
2024/01/12 01:23:31;;;;;;;26.17;19.60;;;;;20.00;102193.00;;;;2084519;28;20596;-50
2024/01/12 01:24:32;;;;;;;26.53;20.60;;;;;20.10;102198.00;;;;2084423;28;20224;-50
2024/01/12 01:25:32;;;;;;;25.57;18.93;;;;;20.00;102199.00;;;;2085095;28;20249;-51
2024/01/12 01:26:33;;;;;;;23.53;17.57;;;;;20.00;102203.00;;;;2084267;28;20221;-51
2024/01/12 01:27:33;;;;;;;25.17;19.50;;;;;20.00;102196.00;;;;2073860;28;20222;-51
2024/01/12 01:28:33;;;;;;;27.40;19.40;;;;;20.00;102198.00;;;;2079283;28;21081;-51
2024/01/12 01:29:34;;;;;;;25.83;19.07;;;;;20.00;102204.00;;;;2083276;28;20762;-50
2024/01/12 01:30:34;;;;;;;24.87;18.40;;;;;20.00;102202.00;;;;2085375;28;20303;-50
2024/01/12 01:31:34;;;;;;;23.90;18.80;;;;;20.00;102197.00;;;;2084258;28;20221;-51
2024/01/12 01:32:35;;;;;;;25.50;19.07;;;;;20.00;102191.00;;;;2073482;28;20368;-51
2024/01/12 01:33:35;;;;;;;26.23;19.20;;;;;20.00;102192.00;;;;2087526;28;20286;-51
2024/01/12 01:34:35;;;;;;;23.93;18.83;;;;;20.00;102195.00;;;;2086342;28;20240;-51
2024/01/12 01:35:36;;;;;;;27.07;19.33;;;;;20.00;102195.00;;;;2084468;28;20231;-51
2024/01/12 01:36:36;;;;;;;24.77;19.00;;;;;20.00;102204.00;;;;2085484;28;20247;-51
2024/01/12 01:37:36;;;;;;;23.37;17.77;;;;;20.00;102200.00;;;;2075050;28;20243;-50
2024/01/12 01:38:37;;;;;;;26.93;18.27;;;;;20.00;102194.00;;;;2084350;28;20301;-51
2024/01/12 01:39:37;;;;;;;25.20;17.30;;;;;20.00;102194.00;;;;2085114;28;20225;-51
2024/01/12 01:40:37;;;;;;;27.10;18.57;;;;;20.00;102194.00;;;;2084647;28;20217;-51
2024/01/12 01:41:38;;;;;;;26.10;19.13;;;;;20.00;102192.00;;;;2085437;28;20329;-51
2024/01/12 01:42:39;;;;;;;25.53;18.70;;;;;20.00;102191.00;;;;2073977;28;20229;-51
2024/01/12 01:43:39;;;;;;;23.10;17.38;;;;;20.00;102198.00;;;;2084734;28;20250;-51
2024/01/12 01:44:39;;;;;;;24.77;18.23;;;;;20.00;102195.00;;;;2083009;28;20761;-55
2024/01/12 01:45:40;;;;;;;23.83;17.83;;;;;20.00;102195.00;;;;2084740;28;20621;-54
2024/01/12 01:46:40;;;;;;;23.53;17.50;;;;;20.00;102196.00;;;;2084108;28;20220;-55
2024/01/12 01:47:41;;;;;;;25.20;18.53;;;;;19.90;102191.00;;;;2074580;28;20237;-53
2024/01/12 01:48:41;;;;;;;25.92;18.75;;;;;19.90;102203.00;;;;2085139;28;20212;-51
2024/01/12 01:49:42;;;;;;;24.13;17.90;;;;;19.90;102184.00;;;;2075546;28;20688;-51
2024/01/12 01:50:42;;;;;;;23.87;18.20;;;;;19.90;102202.00;;;;2076254;28;20213;-51
2024/01/12 01:51:42;;;;;;;26.03;18.73;;;;;19.90;102204.00;;;;2083306;28;20213;-51
2024/01/12 01:52:43;;;;;;;23.63;18.60;;;;;19.90;102199.00;;;;2064268;28;20304;-52
2024/01/12 01:53:43;;;;;;;24.53;18.60;;;;;19.90;102191.00;;;;2073700;28;20220;-51
2024/01/12 01:54:44;;;;;;;28.43;19.43;;;;;19.90;102179.00;;;;2068394;28;22767;-51
2024/01/12 01:55:44;;;;;;;26.10;18.40;;;;;19.90;102200.00;;;;2059923;28;20677;-52
2024/01/12 01:56:44;;;;;;;25.57;18.87;;;;;19.90;102205.00;;;;2065678;28;21319;-51
2024/01/12 01:57:45;;;;;;;27.97;18.57;;;;;19.90;102199.00;;;;2066377;28;20424;-51
2024/01/12 01:58:45;;;;;;;23.50;17.47;;;;;19.90;102214.00;;;;2071085;28;20296;-50
2024/01/12 01:59:46;;;;;;;23.53;17.70;;;;;19.90;102195.00;;;;2075543;28;20224;-51
2024/01/12 02:00:47;;;;;;;22.93;17.30;;;;;19.90;102198.00;;;;2076108;28;20205;-51
2024/01/12 02:01:47;;;;;;;23.77;17.15;;;;;19.90;102197.00;;;;2075236;28;20218;-50
2024/01/12 02:02:48;;;;;;;24.27;17.77;;;;;19.90;102171.00;;;;2073944;28;20301;-52
2024/01/12 02:03:48;;;;;;;23.67;17.30;;;;;19.90;102197.00;;;;2076414;28;20716;-50
2024/01/12 02:04:52;;;;;;;25.43;17.47;;;;;19.90;102166.00;;;;2076179;28;20681;-51
2024/01/12 02:05:52;;;;;;;25.20;17.83;;;;;19.90;102188.00;;;;2068190;28;20292;-51
2024/01/12 02:06:52;;;;;;;23.60;17.13;;;;;19.90;102180.00;;;;2066826;28;20206;-51
2024/01/12 02:07:53;;;;;;;25.20;16.80;;;;;19.90;102178.00;;;;2077445;28;20224;-51
2024/01/12 02:08:53;;;;;;;21.60;16.80;;;;;19.90;102185.00;;;;2093495;28;20223;-52
2024/01/12 02:09:54;;;;;;;24.10;18.03;;;;;19.90;102202.00;;;;2072643;28;20268;-51
2024/01/12 02:10:55;;;;;;;22.77;16.30;;;;;19.90;102179.00;;;;2061345;28;20321;-50
2024/01/12 02:11:56;;;;;;;24.75;17.05;;;;;19.80;102179.00;;;;2076785;28;20216;-51
2024/01/12 02:12:56;;;;;;;24.50;17.47;;;;;19.90;102182.00;;;;2075632;28;20316;-50
2024/01/12 02:13:56;;;;;;;21.50;16.00;;;;;19.80;102182.00;;;;2086168;28;20212;-50
2024/01/12 02:14:57;;;;;;;25.40;17.50;;;;;19.90;102185.00;;;;2086550;28;20205;-51
2024/01/12 02:15:57;;;;;;;22.83;16.73;;;;;19.90;102179.00;;;;2085735;28;20241;-50
2024/01/12 02:16:57;;;;;;;23.07;17.30;;;;;19.80;102187.00;;;;2077963;28;20194;-51
2024/01/12 02:17:58;;;;;;;24.00;17.07;;;;;19.80;102190.00;;;;2057775;28;20213;-51
2024/01/12 02:18:58;;;;;;;23.50;16.20;;;;;19.80;102197.00;;;;2074489;28;20224;-51
2024/01/12 02:19:59;;;;;;;22.43;16.67;;;;;19.80;102195.00;;;;2074592;28;20209;-50
2024/01/12 02:20:59;;;;;;;22.70;18.27;;;;;19.90;102199.00;;;;2085796;28;20212;-51
2024/01/12 02:21:59;;;;;;;24.00;18.63;;;;;19.90;102200.00;;;;2086435;28;20227;-50
2024/01/12 02:23:00;;;;;;;29.10;19.77;;;;;19.90;102200.00;;;;2073687;28;20212;-51
2024/01/12 02:24:00;;;;;;;25.17;19.20;;;;;19.80;102198.00;;;;2086437;28;20262;-51
2024/01/12 02:25:01;;;;;;;24.37;18.97;;;;;19.80;102199.00;;;;2086370;28;20569;-51
2024/01/12 02:26:02;;;;;;;26.60;18.80;;;;;19.80;102190.00;;;;2086046;28;20231;-51
2024/01/12 02:27:02;;;;;;;24.47;18.10;;;;;19.80;102192.00;;;;2086849;28;20216;-51
2024/01/12 02:28:02;;;;;;;25.90;18.53;;;;;19.80;102193.00;;;;2075927;28;20337;-51
2024/01/12 02:29:03;;;;;;;24.73;18.60;;;;;19.80;102199.00;;;;2081377;28;20246;-51
2024/01/12 02:30:04;;;;;;;25.80;17.23;;;;;19.80;102192.00;;;;2089420;28;20204;-50
2024/01/12 02:31:04;;;;;;;23.55;17.55;;;;;19.80;102199.00;;;;2086094;28;20213;-51
2024/01/12 02:32:04;;;;;;;27.40;18.33;;;;;19.80;102197.00;;;;2084542;28;20651;-51
2024/01/12 02:33:06;;;;;;;24.03;17.27;;;;;19.80;102195.00;;;;2081276;28;20261;-51
2024/01/12 02:34:06;;;;;;;25.98;18.88;;;;;19.80;102197.00;;;;2085572;28;20768;-51
2024/01/12 02:35:07;;;;;;;24.57;17.70;;;;;19.80;102199.00;;;;2085729;28;20224;-51
2024/01/12 02:36:07;;;;;;;24.93;18.20;;;;;19.80;102198.00;;;;2086409;28;20235;-51
2024/01/12 02:37:08;;;;;;;23.50;17.37;;;;;19.80;102197.00;;;;2085892;28;20680;-51
2024/01/12 02:38:08;;;;;;;28.23;17.20;;;;;19.80;102192.00;;;;2075488;28;21008;-51
2024/01/12 02:39:08;;;;;;;24.47;17.93;;;;;19.80;102190.00;;;;2085450;28;20690;-51
2024/01/12 02:40:09;;;;;;;24.27;17.90;;;;;19.80;102193.00;;;;2085900;28;20703;-51
2024/01/12 02:41:09;;;;;;;23.77;17.10;;;;;19.80;102194.00;;;;2086805;28;20217;-51
2024/01/12 02:42:10;;;;;;;26.13;18.23;;;;;19.80;102189.00;;;;2084267;28;20220;-50
2024/01/12 02:43:10;;;;;;;22.33;15.97;;;;;19.80;102192.00;;;;2083904;28;20278;-51
2024/01/12 02:44:10;;;;;;;20.80;15.10;;;;;19.80;102194.00;;;;2092860;28;20256;-51
2024/01/12 02:45:11;;;;;;;24.87;16.87;;;;;19.70;102180.00;;;;2086522;28;20213;-51
2024/01/12 02:46:11;;;;;;;20.10;15.47;;;;;19.70;102189.00;;;;2086593;28;20220;-51
2024/01/12 02:47:13;;;;;;;21.80;16.00;;;;;19.80;102182.00;;;;2085867;28;20307;-51
2024/01/12 02:48:13;;;;;;;22.60;17.27;;;;;19.80;102181.00;;;;2072185;28;20224;-51
2024/01/12 02:49:13;;;;;;;24.70;17.77;;;;;19.80;102191.00;;;;2083881;28;20217;-51
2024/01/12 02:50:14;;;;;;;21.70;16.63;;;;;19.80;102184.00;;;;2086669;28;20278;-51
2024/01/12 02:51:14;;;;;;;24.30;17.00;;;;;19.70;102261.00;;;;2085350;28;20298;-51
2024/01/12 02:52:14;;;;;;;25.27;17.80;;;;;19.70;102179.00;;;;2075102;28;20673;-51
2024/01/12 02:53:15;;;;;;;25.53;17.27;;;;;19.80;102181.00;;;;2083149;28;20780;-51
2024/01/12 02:54:15;;;;;;;23.47;15.63;;;;;19.70;102180.00;;;;2079078;28;20229;-50
2024/01/12 02:55:15;;;;;;;22.17;15.70;;;;;19.70;102175.00;;;;2084834;28;20244;-51
2024/01/12 02:56:16;;;;;;;22.23;16.87;;;;;19.70;102180.00;;;;2085744;28;20236;-50
2024/01/12 02:57:16;;;;;;;25.63;16.87;;;;;19.70;102176.00;;;;2076124;28;20217;-52
2024/01/12 02:58:16;;;;;;;25.80;17.73;;;;;19.70;102177.00;;;;2085770;28;20216;-50
2024/01/12 02:59:17;;;;;;;23.90;16.60;;;;;19.70;102180.00;;;;2091356;28;20223;-50
2024/01/12 03:00:17;;;;;;;22.60;15.77;;;;;19.70;102177.00;;;;2086288;28;20213;-51
2024/01/12 03:01:19;;;;;;;27.33;16.50;;;;;19.70;102179.00;;;;2085082;28;20240;-56
2024/01/12 03:02:19;;;;;;;22.67;15.23;;;;;19.70;102179.00;;;;2074938;28;20300;-50
2024/01/12 03:03:19;;;;;;;23.23;16.07;;;;;19.70;102176.00;;;;2085140;28;20216;-51
2024/01/12 03:04:20;;;;;;;25.63;16.83;;;;;19.70;102188.00;;;;2078649;28;20225;-51
2024/01/12 03:05:20;;;;;;;21.20;15.93;;;;;19.70;102187.00;;;;2085158;28;20221;-51
2024/01/12 03:06:20;;;;;;;24.50;17.20;;;;;19.70;102180.00;;;;2085533;28;20380;-51
2024/01/12 03:07:21;;;;;;;24.10;17.07;;;;;19.70;102182.00;;;;2074918;28;20216;-51
2024/01/12 03:08:21;;;;;;;25.67;17.00;;;;;19.70;102180.00;;;;2085425;28;20213;-50
2024/01/12 03:09:22;;;;;;;21.37;15.50;;;;;19.70;102185.00;;;;2086479;28;20343;-51
2024/01/12 03:10:22;;;;;;;23.77;16.27;;;;;19.70;102179.00;;;;2083460;28;20236;-51
2024/01/12 03:11:22;;;;;;;24.30;16.20;;;;;19.70;102173.00;;;;2076689;28;20293;-51
2024/01/12 03:12:23;;;;;;;26.10;16.83;;;;;19.70;102185.00;;;;2072473;28;20225;-50
2024/01/12 03:13:23;;;;;;;22.77;15.60;;;;;19.70;102185.00;;;;2084061;28;20217;-50
2024/01/12 03:14:23;;;;;;;24.27;15.87;;;;;19.70;102189.00;;;;2084158;28;20327;-50
2024/01/12 03:15:24;;;;;;;25.20;16.57;;;;;19.70;102163.00;;;;2084144;28;20227;-50
2024/01/12 03:16:24;;;;;;;21.90;15.40;;;;;19.70;102189.00;;;;2086407;28;20248;-51
2024/01/12 03:17:25;;;;;;;22.20;15.90;;;;;19.70;102189.00;;;;2075355;28;20221;-51
2024/01/12 03:18:26;;;;;;;20.80;14.97;;;;;19.70;102183.00;;;;2085438;28;20645;-51
2024/01/12 03:19:27;;;;;;;24.05;15.50;;;;;19.70;102188.00;;;;2082953;28;20267;-51
2024/01/12 03:20:27;;;;;;;23.67;16.33;;;;;19.70;102178.00;;;;2080703;28;20701;-50
2024/01/12 03:21:27;;;;;;;21.83;15.47;;;;;19.70;102074.00;;;;2083057;28;20244;-50
2024/01/12 03:22:29;;;;;;;22.00;14.00;;;;;19.70;102189.00;;;;2076235;28;20861;-51
2024/01/12 03:23:29;;;;;;;21.85;14.52;;;;;19.70;102191.00;;;;2087311;28;20209;-51
2024/01/12 03:24:30;;;;;;;21.07;14.50;;;;;19.60;102190.00;;;;2086576;28;20212;-52
2024/01/12 03:25:30;;;;;;;22.70;14.13;;;;;19.60;102189.00;;;;2087182;28;20220;-51
2024/01/12 03:26:35;;;;;;;25.40;15.33;;;;;19.70;102181.00;;;;2086850;28;20231;-51
2024/01/12 03:27:35;;;;;;;22.42;15.65;;;;;19.70;102182.00;;;;2067772;28;20244;-51
2024/01/12 03:28:36;;;;;;;20.27;14.20;;;;;19.70;102185.00;;;;2078796;28;20213;-51
2024/01/12 03:29:36;;;;;;;20.47;15.03;;;;;19.70;102233.00;;;;2086200;28;20246;-51
2024/01/12 03:30:36;;;;;;;20.63;15.10;;;;;19.70;102181.00;;;;2086516;28;20618;-50
2024/01/12 03:31:36;;;;;;;23.30;15.53;;;;;19.70;102181.00;;;;2085444;28;20221;-51
2024/01/12 03:32:37;;;;;;;22.27;15.20;;;;;19.60;102178.00;;;;2075066;28;20228;-50
2024/01/12 03:33:38;;;;;;;18.03;14.10;;;;;19.70;102176.00;;;;2085975;28;20215;-51
2024/01/12 03:34:38;;;;;;;19.97;13.70;;;;;19.70;102178.00;;;;2085339;28;20232;-51
2024/01/12 03:35:40;;;;;;;23.87;15.37;;;;;19.70;102167.00;;;;2085908;28;20456;-50
2024/01/12 03:36:40;;;;;;;20.92;13.57;;;;;19.60;102172.00;;;;2085410;28;20346;-51
2024/01/12 03:37:40;;;;;;;23.77;15.30;;;;;19.60;102166.00;;;;2075932;28;20297;-50
2024/01/12 03:38:40;;;;;;;21.43;14.67;;;;;19.60;102161.00;;;;2085625;28;20244;-51
2024/01/12 03:39:41;;;;;;;20.43;14.37;;;;;19.60;102173.00;;;;2086218;28;20228;-51
2024/01/12 03:40:41;;;;;;;19.70;14.50;;;;;19.60;102169.00;;;;2085475;28;20217;-50
2024/01/12 03:41:41;;;;;;;22.63;15.00;;;;;19.60;102160.00;;;;2091497;28;20371;-51
2024/01/12 03:42:42;;;;;;;21.37;14.77;;;;;19.60;102167.00;;;;2074658;28;20222;-51
2024/01/12 03:43:42;;;;;;;19.00;13.77;;;;;19.60;102162.00;;;;2083803;28;20232;-51
2024/01/12 03:44:43;;;;;;;22.47;14.93;;;;;19.60;102160.00;;;;2085900;28;20216;-51
2024/01/12 03:45:43;;;;;;;20.07;13.50;;;;;19.70;102160.00;;;;2085234;28;20219;-51
2024/01/12 03:46:43;;;;;;;21.07;13.90;;;;;19.70;102164.00;;;;2085891;28;20240;-51
2024/01/12 03:47:43;;;;;;;19.47;13.97;;;;;19.60;102160.00;;;;2075061;28;20294;-51
2024/01/12 03:48:45;;;;;;;20.40;14.07;;;;;19.60;102160.00;;;;2082349;28;20225;-51
2024/01/12 03:49:45;;;;;;;22.25;13.93;;;;;19.60;102098.00;;;;2086140;28;20220;-50
2024/01/12 03:50:45;;;;;;;20.33;14.50;;;;;19.60;102153.00;;;;2085354;28;20984;-50
2024/01/12 03:51:53;;;;;;;18.67;13.07;;;;;19.60;102156.00;;;;2086234;28;20850;-51
2024/01/12 03:52:53;;;;;;;21.02;14.35;;;;;19.60;102145.00;;;;2074309;28;20251;-50
2024/01/12 03:53:54;;;;;;;20.90;14.50;;;;;19.60;102149.00;;;;2085396;28;20213;-55
2024/01/12 03:54:54;;;;;;;20.00;13.37;;;;;19.60;102153.00;;;;2085126;28;20205;-54
2024/01/12 03:55:54;;;;;;;19.13;13.40;;;;;19.60;102151.00;;;;2085583;28;20673;-53
2024/01/12 03:56:55;;;;;;;18.40;13.70;;;;;19.60;102150.00;;;;2085910;28;20990;-52
2024/01/12 03:57:55;;;;;;;16.93;13.10;;;;;19.60;102148.00;;;;2075373;28;20584;-51
2024/01/12 03:58:55;;;;;;;22.53;14.07;;;;;19.60;102158.00;;;;2086329;28;20240;-51
2024/01/12 03:59:56;;;;;;;19.40;13.50;;;;;19.60;102147.00;;;;2085288;28;20213;-50
2024/01/12 04:00:56;;;;;;;19.90;14.07;;;;;19.60;102145.00;;;;2085851;28;20228;-50
2024/01/12 04:01:56;;;;;;;21.87;14.43;;;;;19.60;102147.00;;;;2085576;28;20243;-51
2024/01/12 04:02:57;;;;;;;20.93;13.40;;;;;19.60;102148.00;;;;2074651;28;20556;-50
2024/01/12 04:03:57;;;;;;;20.77;12.97;;;;;19.60;102152.00;;;;2083415;28;20990;-50
2024/01/12 04:04:57;;;;;;;18.23;12.23;;;;;19.60;102149.00;;;;2084658;28;20520;-51
2024/01/12 04:05:59;;;;;;;22.40;15.60;;;;;19.60;102151.00;;;;2085840;28;20235;-51
2024/01/12 04:06:59;;;;;;;22.50;13.45;;;;;19.60;102154.00;;;;2084586;28;20273;-51
2024/01/12 04:08:00;;;;;;;20.47;13.77;;;;;19.60;102154.00;;;;2076173;28;20275;-51
2024/01/12 04:09:00;;;;;;;17.60;12.80;;;;;19.60;102159.00;;;;2085210;28;20213;-50
2024/01/12 04:10:00;;;;;;;20.23;14.00;;;;;19.60;102164.00;;;;2085988;28;20217;-51
2024/01/12 04:11:01;;;;;;;19.10;12.93;;;;;19.50;102161.00;;;;2085940;28;20684;-51
2024/01/12 04:12:01;;;;;;;18.07;12.17;;;;;19.50;102165.00;;;;2085023;28;20750;-51
2024/01/12 04:13:02;;;;;;;18.93;13.30;;;;;19.50;102156.00;;;;2075225;28;20561;-51
2024/01/12 04:14:03;;;;;;;19.03;12.73;;;;;19.50;102160.00;;;;2085264;28;20262;-51
2024/01/12 04:15:03;;;;;;;19.93;12.83;;;;;19.60;102163.00;;;;2085723;28;20270;-51
2024/01/12 04:16:04;;;;;;;19.53;13.20;;;;;19.50;102158.00;;;;2085051;28;20459;-51
2024/01/12 04:17:04;;;;;;;17.87;12.93;;;;;19.60;102161.00;;;;2085860;28;20307;-51
2024/01/12 04:18:05;;;;;;;16.40;11.57;;;;;19.50;102155.00;;;;2076039;28;20213;-50
2024/01/12 04:19:05;;;;;;;17.50;12.50;;;;;19.50;102161.00;;;;2084690;28;20213;-50
2024/01/12 04:20:07;;;;;;;20.80;13.63;;;;;19.50;102168.00;;;;2085994;28;20224;-51
2024/01/12 04:21:08;;;;;;;21.65;13.68;;;;;19.50;102158.00;;;;2084710;28;20216;-51
2024/01/12 04:22:08;;;;;;;19.77;12.50;;;;;19.60;102165.00;;;;2084145;28;20212;-52
2024/01/12 04:23:08;;;;;;;19.93;12.63;;;;;19.50;102156.00;;;;2075132;28;20241;-51
2024/01/12 04:24:09;;;;;;;17.13;13.07;;;;;19.50;102168.00;;;;2085823;28;20210;-51
2024/01/12 04:25:09;;;;;;;15.70;11.80;;;;;19.50;102161.00;;;;2085398;28;20300;-50
2024/01/12 04:26:09;;;;;;;19.40;13.20;;;;;19.50;102159.00;;;;2084692;28;20292;-51
2024/01/12 04:27:10;;;;;;;19.80;14.07;;;;;19.50;102149.00;;;;2085569;28;20669;-52
2024/01/12 04:28:10;;;;;;;19.77;13.03;;;;;19.50;102153.00;;;;2074718;28;20787;-51
2024/01/12 04:29:10;;;;;;;20.10;13.53;;;;;19.50;102150.00;;;;2085880;28;21011;-51
2024/01/12 04:30:11;;;;;;;18.13;13.13;;;;;19.50;102152.00;;;;2082472;28;20823;-51
2024/01/12 04:31:11;;;;;;;18.40;12.60;;;;;19.50;102151.00;;;;2076943;28;20213;-50
2024/01/12 04:32:12;;;;;;;17.40;12.30;;;;;19.50;102148.00;;;;2084465;28;20641;-51
2024/01/12 04:33:12;;;;;;;20.60;12.60;;;;;19.50;102146.00;;;;2074891;28;20711;-52
2024/01/12 04:34:12;;;;;;;17.07;12.23;;;;;19.50;102160.00;;;;2085630;28;20684;-52
2024/01/12 04:35:13;;;;;;;18.77;12.20;;;;;19.50;102149.00;;;;2085074;28;20865;-51
2024/01/12 04:36:13;;;;;;;17.07;11.47;;;;;19.50;102152.00;;;;2085617;28;20276;-52
2024/01/12 04:37:13;;;;;;;18.60;13.40;;;;;19.50;102153.00;;;;2078711;28;20216;-53
2024/01/12 04:38:14;;;;;;;19.93;12.80;;;;;18.90;102143.00;;;;2082078;28;20237;-50
2024/01/12 04:39:15;;;;;;;20.33;12.30;;;;;19.50;102143.00;;;;2085413;28;20274;-51
2024/01/12 04:40:15;;;;;;;16.50;12.07;;;;;19.50;102140.00;;;;2084770;28;20305;-52
2024/01/12 04:41:15;;;;;;;18.63;12.47;;;;;19.50;102138.00;;;;2085761;28;21049;-51
2024/01/12 04:42:16;;;;;;;20.10;12.30;;;;;19.50;102148.00;;;;2073733;28;20733;-52
2024/01/12 04:43:16;;;;;;;17.70;11.87;;;;;19.50;102149.00;;;;2085937;28;20243;-50
2024/01/12 04:44:16;;;;;;;18.17;11.50;;;;;19.50;102147.00;;;;2084756;28;20263;-50
2024/01/12 04:45:17;;;;;;;21.10;12.97;;;;;19.50;102146.00;;;;2085568;28;20596;-51
2024/01/12 04:46:18;;;;;;;17.95;12.25;;;;;19.50;102147.00;;;;2085521;28;20229;-51
2024/01/12 04:47:18;;;;;;;16.67;12.23;;;;;19.50;102148.00;;;;2066332;28;20296;-52
2024/01/12 04:48:18;;;;;;;19.80;12.43;;;;;19.50;102159.00;;;;2082977;28;20220;-51
2024/01/12 04:49:19;;;;;;;19.00;11.73;;;;;19.50;102149.00;;;;2085064;28;20224;-51
2024/01/12 04:50:19;;;;;;;20.17;12.83;;;;;19.50;102144.00;;;;2082901;28;20249;-51
2024/01/12 04:51:19;;;;;;;16.80;12.20;;;;;19.50;102138.00;;;;2085032;28;20209;-51
2024/01/12 04:52:20;;;;;;;19.53;12.20;;;;;19.50;102146.00;;;;2074442;28;20228;-51